createdAt,value
2019-05-21T00:00:50.636Z,15.32
2019-05-21T00:03:38.980Z,14.18
2019-05-21T00:06:27.278Z,13.13
2019-05-21T00:09:15.400Z,13.78
2019-05-21T00:12:04.078Z,13.40
2019-05-21T00:14:52.443Z,12.00
2019-05-21T00:17:40.681Z,13.55
2019-05-21T00:20:28.747Z,12.82
2019-05-21T00:23:16.342Z,11.65
2019-05-21T00:26:04.927Z,13.90
2019-05-21T00:29:30.203Z,12.78
2019-05-21T00:32:54.563Z,14.20
2019-05-21T00:36:19.037Z,13.75
2019-05-21T00:39:43.982Z,13.53
2019-05-21T00:42:38.281Z,11.73
2019-05-21T00:45:25.948Z,15.70
2019-05-21T00:48:14.454Z,14.13
2019-05-21T00:51:02.327Z,14.23
2019-05-21T00:53:50.812Z,15.15
2019-05-21T00:56:39.310Z,14.43
2019-05-21T00:59:27.372Z,15.45
2019-05-21T01:02:15.405Z,16.02
2019-05-21T01:05:04.121Z,15.65
2019-05-21T01:07:52.083Z,17.17
2019-05-21T01:10:39.893Z,19.35
2019-05-21T01:13:28.525Z,19.87
2019-05-21T01:16:16.380Z,22.07
2019-05-21T01:19:04.694Z,21.95
2019-05-21T01:21:53.511Z,21.12
2019-05-21T01:24:41.448Z,20.37
2019-05-21T01:27:29.235Z,19.95
2019-05-21T01:30:17.456Z,21.07
2019-05-21T01:33:05.650Z,18.15
2019-05-21T01:35:54.355Z,16.73
2019-05-21T01:38:42.178Z,13.90
2019-05-21T01:41:30.358Z,15.53
2019-05-21T01:44:18.660Z,17.48
2019-05-21T01:47:06.941Z,17.20
2019-05-21T01:49:55.091Z,16.60
2019-05-21T01:52:42.982Z,15.40
2019-05-21T01:55:30.957Z,16.95
2019-05-21T01:58:19.409Z,16.67
2019-05-21T02:01:07.351Z,19.85
2019-05-21T02:03:55.147Z,18.07
2019-05-21T02:06:43.506Z,19.32
2019-05-21T02:09:33.209Z,19.00
2019-05-21T02:12:21.307Z,18.73
2019-05-21T02:15:10.271Z,21.80
2019-05-21T02:17:58.446Z,19.60
2019-05-21T02:20:47.124Z,19.62
2019-05-21T02:23:34.855Z,18.60
2019-05-21T02:26:23.422Z,21.93
2019-05-21T02:29:11.251Z,21.15
2019-05-21T02:31:59.529Z,21.68
2019-05-21T02:34:47.254Z,23.12
2019-05-21T02:37:35.915Z,20.30
2019-05-21T02:40:24.739Z,21.27
2019-05-21T02:43:12.807Z,25.32
2019-05-21T02:46:01.456Z,24.52
2019-05-21T02:48:49.940Z,23.87
2019-05-21T02:51:37.918Z,22.65
2019-05-21T02:54:40.375Z,25.72
2019-05-21T02:57:16.483Z,18.77
2019-05-21T03:00:07.978Z,20.95
2019-05-21T03:02:55.634Z,22.93
2019-05-21T03:05:44.271Z,24.67
2019-05-21T03:08:33.301Z,24.40
2019-05-21T03:11:21.456Z,23.73
2019-05-21T03:14:09.598Z,23.85
2019-05-21T03:16:58.330Z,22.58
2019-05-21T03:19:47.638Z,22.85
2019-05-21T03:22:36.347Z,25.50
2019-05-21T03:25:24.430Z,21.70
2019-05-21T03:28:12.869Z,20.97
2019-05-21T03:31:00.841Z,19.85
2019-05-21T03:33:49.419Z,22.30
2019-05-21T03:36:38.163Z,22.10
2019-05-21T03:39:26.300Z,25.68
2019-05-21T03:42:13.995Z,23.40
2019-05-21T03:45:01.930Z,18.95
2019-05-21T03:47:49.573Z,17.52
2019-05-21T03:50:37.497Z,19.32
2019-05-21T03:53:25.240Z,18.00
2019-05-21T03:56:13.959Z,17.70
2019-05-21T03:59:01.937Z,16.20
2019-05-21T04:01:50.312Z,22.30
2019-05-21T04:04:38.783Z,16.93
2019-05-21T04:07:26.774Z,16.87
2019-05-21T04:10:17.669Z,14.55
2019-05-21T04:13:07.133Z,16.80
2019-05-21T04:16:00.267Z,16.82
2019-05-21T04:18:58.372Z,16.12
2019-05-21T04:21:46.129Z,15.58
2019-05-21T04:24:34.746Z,15.25
2019-05-21T04:27:23.037Z,13.48
2019-05-21T04:30:11.590Z,13.45
2019-05-21T04:33:00.129Z,13.22
2019-05-21T04:35:48.417Z,12.55
2019-05-21T04:38:36.979Z,13.08
2019-05-21T04:41:25.594Z,13.10
2019-05-21T04:44:13.658Z,11.45
2019-05-21T04:47:01.488Z,13.10
2019-05-21T04:49:49.419Z,13.55
2019-05-21T04:52:37.123Z,13.60
2019-05-21T04:55:24.883Z,13.05
2019-05-21T04:58:12.688Z,13.58
2019-05-21T05:01:00.791Z,14.28
2019-05-21T05:03:49.240Z,13.78
2019-05-21T05:06:37.396Z,13.40
2019-05-21T05:09:25.678Z,10.15
2019-05-21T05:12:13.993Z,12.47
2019-05-21T05:15:01.627Z,12.93
2019-05-21T05:17:50.109Z,12.28
2019-05-21T05:20:38.615Z,12.33
2019-05-21T05:23:46.357Z,12.37
2019-05-21T05:26:34.288Z,12.80
2019-05-21T05:29:22.468Z,12.43
2019-05-21T05:32:10.935Z,13.75
2019-05-21T05:34:58.978Z,13.45
2019-05-21T05:37:49.036Z,12.70
2019-05-21T05:40:38.072Z,11.93
2019-05-21T05:43:25.856Z,12.28
2019-05-21T05:46:14.081Z,12.65
2019-05-21T05:49:06.003Z,11.93
2019-05-21T05:51:53.663Z,12.98
2019-05-21T05:54:41.677Z,11.90
2019-05-21T05:57:29.565Z,11.63
2019-05-21T06:00:18.607Z,14.28
2019-05-21T06:03:07.318Z,14.75
2019-05-21T06:05:55.232Z,14.18
2019-05-21T06:08:43.252Z,14.35
2019-05-21T06:11:31.774Z,14.40
2019-05-21T06:14:19.950Z,12.33
2019-05-21T06:17:08.003Z,11.55
2019-05-21T06:19:55.986Z,12.15
2019-05-21T06:22:44.395Z,12.73
2019-05-21T06:25:32.357Z,12.82
2019-05-21T06:28:20.788Z,13.18
2019-05-21T06:31:09.122Z,13.60
2019-05-21T06:33:57.404Z,12.82
2019-05-21T06:36:45.936Z,14.23
2019-05-21T06:39:35.019Z,12.70
2019-05-21T06:42:23.018Z,13.93
2019-05-21T06:45:11.359Z,13.18
2019-05-21T06:47:59.628Z,12.07
2019-05-21T06:50:47.593Z,14.80
2019-05-21T06:53:35.415Z,12.37
2019-05-21T06:56:24.162Z,11.05
2019-05-21T06:59:11.934Z,12.65
2019-05-21T07:02:00.442Z,13.40
2019-05-21T07:04:48.970Z,14.55
2019-05-21T07:07:37.216Z,13.40
2019-05-21T07:10:25.209Z,12.28
2019-05-21T07:13:13.185Z,13.15
2019-05-21T07:16:01.336Z,12.98
2019-05-21T07:18:49.922Z,10.82
2019-05-21T07:21:37.998Z,10.68
2019-05-21T07:24:28.191Z,10.88
2019-05-21T07:27:15.108Z,10.28
2019-05-21T07:30:03.870Z,10.72
2019-05-21T07:32:52.931Z,8.75
2019-05-21T07:35:41.214Z,9.58
2019-05-21T07:38:29.853Z,7.83
2019-05-21T07:41:20.377Z,8.85
2019-05-21T07:44:08.481Z,9.33
2019-05-21T07:46:56.413Z,7.70
2019-05-21T07:49:44.562Z,7.92
2019-05-21T07:52:33.371Z,9.55
2019-05-21T07:55:23.082Z,9.50
2019-05-21T07:58:10.950Z,9.83
2019-05-21T08:01:01.128Z,8.48
2019-05-21T08:03:49.196Z,8.50
2019-05-21T08:06:37.447Z,7.58
2019-05-21T08:09:25.761Z,8.55
2019-05-21T08:12:36.783Z,7.60
2019-05-21T08:15:05.555Z,6.25
2019-05-21T08:17:53.341Z,6.37
2019-05-21T08:20:41.209Z,7.12
2019-05-21T08:23:29.231Z,7.42
2019-05-21T08:26:17.394Z,6.25
2019-05-21T08:29:05.992Z,6.30
2019-05-21T08:31:53.978Z,7.72
2019-05-21T08:34:41.805Z,6.90
2019-05-21T08:37:29.798Z,6.20
2019-05-21T08:40:17.961Z,5.90
2019-05-21T08:43:06.623Z,6.15
2019-05-21T08:45:54.312Z,7.10
2019-05-21T08:48:42.385Z,6.78
2019-05-21T08:51:31.062Z,5.35
2019-05-21T08:54:20.983Z,5.12
2019-05-21T08:57:08.758Z,6.62
2019-05-21T08:59:57.419Z,6.87
2019-05-21T09:02:46.067Z,5.12
2019-05-21T09:05:34.898Z,5.58
2019-05-21T09:08:23.230Z,4.97
2019-05-21T09:11:11.771Z,5.28
2019-05-21T09:13:59.553Z,6.15
2019-05-21T09:16:47.856Z,6.58
2019-05-21T09:19:36.750Z,6.58
2019-05-21T09:22:25.337Z,5.92
2019-05-21T09:25:14.028Z,5.80
2019-05-21T09:28:01.971Z,5.92
2019-05-21T09:30:49.931Z,6.85
2019-05-21T09:33:38.534Z,6.72
2019-05-21T09:36:26.268Z,6.03
2019-05-21T09:39:14.529Z,6.17
2019-05-21T09:42:02.142Z,7.08
2019-05-21T09:44:50.427Z,7.10
2019-05-21T09:47:38.228Z,6.17
2019-05-21T09:50:26.952Z,6.17
2019-05-21T09:53:15.511Z,6.33
2019-05-21T09:56:05.523Z,6.83
2019-05-21T09:58:55.224Z,5.67
2019-05-21T10:01:48.607Z,6.40
2019-05-21T10:04:37.295Z,6.10
2019-05-21T10:07:39.279Z,6.90
2019-05-21T10:10:15.942Z,6.10
2019-05-21T10:13:04.043Z,5.47
2019-05-21T10:15:51.752Z,5.20
2019-05-21T10:18:39.970Z,5.42
2019-05-21T10:21:28.020Z,5.30
2019-05-21T10:24:16.745Z,6.35
2019-05-21T10:27:04.584Z,5.87
2019-05-21T10:29:52.600Z,7.17
2019-05-21T10:32:40.754Z,5.50
2019-05-21T10:35:28.224Z,6.47
2019-05-21T10:38:17.031Z,6.87
2019-05-21T10:41:18.675Z,6.33
2019-05-21T10:44:07.687Z,7.05
2019-05-21T10:46:55.879Z,7.42
2019-05-21T10:49:43.860Z,6.35
2019-05-21T10:52:31.740Z,6.83
2019-05-21T10:55:20.026Z,6.75
2019-05-21T10:58:08.234Z,6.85
2019-05-21T11:01:00.511Z,6.97
2019-05-21T11:04:05.939Z,6.30
2019-05-21T11:06:54.970Z,6.50
2019-05-21T11:09:43.779Z,6.92
2019-05-21T11:12:32.796Z,6.03
2019-05-21T11:15:20.897Z,6.12
2019-05-21T11:18:11.381Z,6.70
2019-05-21T11:20:58.540Z,6.17
2019-05-21T11:23:46.314Z,7.00
2019-05-21T11:26:34.062Z,5.78
2019-05-21T11:29:22.700Z,6.15
2019-05-21T11:32:10.895Z,6.45
2019-05-21T11:34:58.564Z,6.42
2019-05-21T11:37:47.960Z,6.65
2019-05-21T11:40:35.952Z,7.45
2019-05-21T11:43:24.254Z,6.95
2019-05-21T11:46:12.917Z,7.47
2019-05-21T11:49:00.992Z,7.33
2019-05-21T11:51:49.818Z,7.45
2019-05-21T11:54:38.374Z,6.62
2019-05-21T11:57:25.869Z,7.55
2019-05-21T12:00:15.540Z,7.08
2019-05-21T12:03:04.005Z,7.62
2019-05-21T12:05:52.073Z,7.70
2019-05-21T12:08:54.103Z,6.85
2019-05-21T12:11:29.532Z,6.70
2019-05-21T12:14:17.471Z,6.42
2019-05-21T12:17:06.135Z,6.35
2019-05-21T12:19:53.789Z,7.08
2019-05-21T12:22:42.474Z,6.42
2019-05-21T12:25:31.933Z,7.58
2019-05-21T12:28:19.916Z,7.65
2019-05-21T12:31:07.688Z,8.45
2019-05-21T12:33:56.242Z,7.97
2019-05-21T12:36:45.186Z,7.70
2019-05-21T12:39:32.924Z,8.80
2019-05-21T12:42:20.634Z,8.40
2019-05-21T12:45:09.288Z,6.65
2019-05-21T12:47:57.627Z,7.25
2019-05-21T12:50:46.086Z,7.20
2019-05-21T12:53:33.887Z,8.40
2019-05-21T12:56:22.187Z,7.03
2019-05-21T12:59:10.489Z,7.22
2019-05-21T13:01:58.296Z,8.03
2019-05-21T13:04:46.624Z,8.83
2019-05-21T13:07:34.754Z,9.60
2019-05-21T13:10:22.729Z,10.48
2019-05-21T13:13:10.738Z,9.45
2019-05-21T13:15:58.912Z,9.38
2019-05-21T13:18:46.705Z,8.85
2019-05-21T13:21:34.767Z,9.15
2019-05-21T13:24:22.745Z,9.85
2019-05-21T13:27:10.958Z,10.98
2019-05-21T13:29:59.779Z,10.05
2019-05-21T13:32:48.053Z,9.98
2019-05-21T13:35:36.611Z,13.08
2019-05-21T13:38:24.448Z,12.68
2019-05-21T13:41:12.860Z,12.03
2019-05-21T13:44:01.052Z,12.05
2019-05-21T13:46:49.690Z,10.13
2019-05-21T13:49:38.361Z,10.88
2019-05-21T13:52:26.937Z,11.08
2019-05-21T13:55:15.597Z,12.73
2019-05-21T13:58:04.547Z,12.23
2019-05-21T14:00:56.225Z,10.82
2019-05-21T14:03:44.578Z,12.13
2019-05-21T14:06:33.024Z,13.48
2019-05-21T14:09:21.264Z,10.38
2019-05-21T14:12:09.962Z,14.07
2019-05-21T14:14:57.474Z,13.13
2019-05-21T14:17:46.769Z,14.50
2019-05-21T14:20:33.970Z,14.20
2019-05-21T14:23:21.843Z,14.98
2019-05-21T14:26:09.729Z,14.80
2019-05-21T14:28:58.585Z,15.40
2019-05-21T14:31:46.183Z,15.38
2019-05-21T14:34:34.174Z,15.90
2019-05-21T14:37:22.969Z,15.43
2019-05-21T14:40:28.461Z,18.35
2019-05-21T14:43:03.291Z,19.20
2019-05-21T14:45:51.328Z,17.52
2019-05-21T14:48:41.207Z,17.90
2019-05-21T14:51:29.159Z,18.55
2019-05-21T14:54:26.057Z,17.15
2019-05-21T14:57:08.403Z,17.73
2019-05-21T14:59:56.334Z,17.62
2019-05-21T15:02:44.663Z,17.92
2019-05-21T15:05:33.675Z,19.52
2019-05-21T15:08:22.009Z,18.85
2019-05-21T15:11:09.881Z,17.75
2019-05-21T15:13:58.314Z,18.80
2019-05-21T15:16:46.119Z,19.62
2019-05-21T15:19:34.173Z,20.55
2019-05-21T15:22:22.603Z,19.07
2019-05-21T15:25:11.310Z,21.02
2019-05-21T15:27:59.380Z,20.15
2019-05-21T15:30:47.270Z,19.82
2019-05-21T15:33:35.593Z,20.30
2019-05-21T15:36:23.944Z,20.68
2019-05-21T15:39:13.001Z,19.67
2019-05-21T15:42:02.561Z,18.87
2019-05-21T15:44:51.655Z,21.23
2019-05-21T15:47:40.595Z,22.05
2019-05-21T15:50:28.804Z,21.17
2019-05-21T15:53:17.788Z,21.10
2019-05-21T15:56:05.812Z,21.23
2019-05-21T15:58:54.577Z,18.15
2019-05-21T16:01:43.143Z,20.50
2019-05-21T16:04:31.677Z,20.60
2019-05-21T16:07:20.584Z,20.62
2019-05-21T16:10:11.409Z,19.32
2019-05-21T16:13:00.016Z,20.97
2019-05-21T16:15:48.707Z,21.12
2019-05-21T16:18:38.176Z,21.20
2019-05-21T16:21:28.727Z,22.32
2019-05-21T16:24:18.714Z,23.47
2019-05-21T16:27:08.771Z,21.45
2019-05-21T16:29:58.051Z,22.50
2019-05-21T16:32:46.321Z,23.00
2019-05-21T16:35:34.757Z,25.43
2019-05-21T16:38:24.504Z,21.90
2019-05-21T16:41:19.020Z,25.15
2019-05-21T16:44:10.333Z,24.50
2019-05-21T16:46:58.916Z,23.02
2019-05-21T16:49:47.571Z,24.43
2019-05-21T16:52:36.324Z,23.80
2019-05-21T16:55:25.078Z,23.57
2019-05-21T16:58:13.635Z,23.40
2019-05-21T17:01:04.205Z,21.70
2019-05-21T17:03:59.864Z,23.87
2019-05-21T17:06:42.408Z,23.15
2019-05-21T17:09:31.145Z,24.67
2019-05-21T17:12:19.269Z,21.97
2019-05-21T17:15:09.265Z,20.43
2019-05-21T17:17:58.369Z,21.12
2019-05-21T17:20:46.400Z,22.75
2019-05-21T17:23:34.426Z,22.00
2019-05-21T17:26:22.952Z,22.10
2019-05-21T17:29:11.467Z,23.22
2019-05-21T17:32:01.754Z,24.85
2019-05-21T17:34:50.010Z,23.73
2019-05-21T17:37:37.993Z,25.10
2019-05-21T17:40:26.577Z,23.45
2019-05-21T17:43:16.039Z,22.42
2019-05-21T17:46:17.403Z,21.33
2019-05-21T17:49:05.900Z,23.62
2019-05-21T17:51:54.478Z,21.30
2019-05-21T17:54:56.339Z,22.35
2019-05-21T17:57:33.975Z,20.57
2019-05-21T18:00:24.187Z,19.35
2019-05-21T18:03:12.419Z,19.55
2019-05-21T18:06:03.008Z,20.05
2019-05-21T18:08:51.561Z,21.30
2019-05-21T18:11:40.111Z,20.57
2019-05-21T18:14:29.562Z,16.90
2019-05-21T18:17:19.475Z,18.73
2019-05-21T18:20:09.225Z,18.67
2019-05-21T18:22:57.399Z,16.62
2019-05-21T18:25:45.946Z,16.65
2019-05-21T18:28:34.787Z,15.72
2019-05-21T18:31:22.625Z,16.87
2019-05-21T18:34:10.901Z,16.37
2019-05-21T18:37:00.684Z,16.75
2019-05-21T18:39:48.598Z,15.72
2019-05-21T18:42:36.967Z,14.05
2019-05-21T18:45:25.220Z,14.58
2019-05-21T18:48:13.742Z,14.33
2019-05-21T18:51:02.199Z,14.60
2019-05-21T18:53:50.526Z,14.03
2019-05-21T18:56:39.127Z,14.50
2019-05-21T18:59:27.619Z,13.75
2019-05-21T19:02:16.065Z,16.15
2019-05-21T19:05:04.945Z,15.08
2019-05-21T19:07:53.456Z,32.00
2019-05-21T19:10:41.741Z,15.88
2019-05-21T19:13:29.862Z,14.90
2019-05-21T19:16:17.745Z,18.77
2019-05-21T19:19:05.757Z,16.05
2019-05-21T19:21:54.155Z,15.65
2019-05-21T19:24:42.123Z,16.12
2019-05-21T19:27:30.669Z,15.75
2019-05-21T19:30:18.974Z,18.30
2019-05-21T19:33:16.828Z,16.85
2019-05-21T19:36:05.627Z,14.78
2019-05-21T19:38:54.261Z,14.35
2019-05-21T19:41:42.296Z,13.60
2019-05-21T19:44:30.586Z,14.40
2019-05-21T19:47:19.209Z,15.10
2019-05-21T19:50:09.679Z,16.20
2019-05-21T19:52:57.714Z,16.82
2019-05-21T19:55:46.449Z,19.25
2019-05-21T19:58:34.523Z,19.55
2019-05-21T20:01:22.742Z,18.15
2019-05-21T20:04:11.564Z,17.30
2019-05-21T20:06:59.310Z,18.90
2019-05-21T20:09:48.570Z,18.40
2019-05-21T20:12:37.153Z,17.02
2019-05-21T20:15:25.256Z,18.60
2019-05-21T20:18:15.274Z,18.35
2019-05-21T20:21:06.213Z,18.35
2019-05-21T20:23:55.590Z,19.27
2019-05-21T20:26:44.385Z,18.52
2019-05-21T20:29:33.038Z,18.85
2019-05-21T20:32:22.205Z,19.17
2019-05-21T20:35:12.171Z,19.85
2019-05-21T20:38:00.003Z,20.10
2019-05-21T20:40:47.908Z,19.27
2019-05-21T20:43:36.346Z,20.15
2019-05-21T20:46:24.454Z,19.67
2019-05-21T20:49:13.487Z,22.42
2019-05-21T20:52:17.789Z,20.23
2019-05-21T20:54:53.900Z,18.45
2019-05-21T20:57:42.329Z,20.35
2019-05-21T21:00:50.482Z,17.30
2019-05-21T21:03:40.172Z,17.32
2019-05-21T21:06:35.350Z,17.07
2019-05-21T21:09:17.711Z,17.35
2019-05-21T21:12:06.662Z,18.55
2019-05-21T21:14:55.111Z,20.65
2019-05-21T21:17:44.061Z,20.08
2019-05-21T21:20:32.610Z,16.30
2019-05-21T21:23:22.890Z,16.67
2019-05-21T21:26:11.787Z,18.85
2019-05-21T21:29:00.148Z,15.55
2019-05-21T21:31:48.059Z,17.25
2019-05-21T21:34:36.574Z,16.55
2019-05-21T21:37:24.386Z,16.00
2019-05-21T21:40:14.872Z,16.80
2019-05-21T21:43:02.838Z,18.73
2019-05-21T21:45:51.187Z,20.43
2019-05-21T21:48:38.891Z,17.00
2019-05-21T21:51:27.470Z,16.97
2019-05-21T21:54:16.368Z,19.80
2019-05-21T21:57:05.212Z,17.35
2019-05-21T21:59:53.404Z,15.90
2019-05-21T22:02:41.591Z,16.15
2019-05-21T22:05:30.602Z,17.48
2019-05-21T22:08:19.891Z,20.02
2019-05-21T22:11:08.340Z,21.23
2019-05-21T22:13:57.280Z,21.35
2019-05-21T22:16:46.558Z,24.72
2019-05-21T22:19:35.237Z,22.75
2019-05-21T22:22:23.629Z,22.52
2019-05-21T22:25:13.321Z,17.45
2019-05-21T22:28:01.532Z,20.62
2019-05-21T22:30:50.184Z,19.23
2019-05-21T22:33:38.576Z,23.92
2019-05-21T22:36:27.046Z,22.85
2019-05-21T22:39:20.063Z,27.22
2019-05-21T22:42:09.605Z,24.05
2019-05-21T22:45:07.814Z,23.52
2019-05-21T22:47:48.205Z,21.15
2019-05-21T22:50:36.783Z,19.42
2019-05-21T22:53:25.518Z,21.73
2019-05-21T22:56:13.487Z,22.35
2019-05-21T22:59:03.220Z,22.73
2019-05-21T23:01:52.877Z,23.95
2019-05-21T23:04:41.084Z,23.95
2019-05-21T23:07:29.180Z,22.75
2019-05-21T23:10:18.592Z,23.90
2019-05-21T23:13:06.803Z,22.58
2019-05-21T23:15:55.201Z,23.40
2019-05-21T23:18:43.749Z,21.30
2019-05-21T23:21:34.250Z,21.33
2019-05-21T23:24:23.645Z,21.87
2019-05-21T23:27:14.285Z,18.17
2019-05-21T23:30:03.554Z,15.78
2019-05-21T23:32:51.510Z,14.78
2019-05-21T23:35:40.570Z,13.68
2019-05-21T23:38:28.787Z,15.00
2019-05-21T23:41:17.809Z,19.57
2019-05-21T23:44:08.253Z,19.15
2019-05-21T23:46:56.407Z,18.80
2019-05-21T23:49:44.553Z,23.80
2019-05-21T23:52:33.136Z,32.48
2019-05-21T23:55:21.932Z,22.85
2019-05-21T23:58:10.182Z,13.72
